New Plymouth, Ohio
Current Conditions -  °F | °C
As of 8:15 AM on Thursday 30 Oct 2014 (Local Time) from KUNI Reporting Station
Overcast Overcast  
Wind Chill: 33°   Ceiling: 4900
Heat Index: 33°   Visibility: 10mi
Dew Point: 32°   Wind: 0mph
Humidity: 95%   Direction: NA
Pressure: 30.15"   Gusts: NA
Location:  39.38°N, 82.4°W
Report Text: KUNI 301215Z AUTO 00000KT 10SM OVC049 01/00 A3015 RMK AO2 T00070000
Loading
Personal Weather Stations






























Interactive Weather Map
Tropical Storm Tracking
New forecast layout! Learn more

10-Day Weather Forecast

Advertisements
Track Severe Weather on mobile